Lawrenceburg, IN (47025)

3:06 PM EST on February 06, 2016 (GMT -0500)
Perfect North Slopes Pump House | | Change Station
CLOSE
Current Station
Personal Weather Station
Location: Lawrenceburg, IN
Elevation: 509 ft
Nearby Weather Stations

Elev 509 ft 39.15 °N, 84.89 °W | Updated 4 seconds ago

Clear
Clear
46.9 °F
Feels Like 47 °F
N
2.0
Wind Variable Wind from NNW
Gusts 7.0 mph

Today
High -- | Low -- °F
--% Chance of Precip.
Yesterday
High -- | Low -- °F
Precip. -- in
Pressure 30.26 in
Visibility 10.0 miles
Clouds Few 6500 ft
Scattered Clouds 15000 ft
Scattered Clouds 20000 ft
Windchill 47 °F
Dew Point 27 °F
Humidity 45%
Rainfall 0.00 in
Snow Depth Not available.
7:41 AM 6:05 PM
Waning Crescent, 4% visible
METAR KCVG 061952Z 23009KT 10SM FEW065 SCT150 SCT200 08/M06 A3025 RMK AO2 SLP247 T00781056 $
Pressure 30.26 in
Visibility 10.0 miles
Clouds Few 6500 ft
Scattered Clouds 15000 ft
Scattered Clouds 20000 ft
Windchill 47 °F
Dew Point 27 °F
Humidity 45%
Rainfall 0.00 in
Snow Depth Not available.
7:41 AM 6:05 PM
Waning Crescent, 4% visible
METAR KCVG 061952Z 23009KT 10SM FEW065 SCT150 SCT200 08/M06 A3025 RMK AO2 SLP247 T00781056 $

10-Day Weather Forecast

Almanac

Astronomy

Feb. 06, 2016 Rise Set
Actual Time
Civil Twilight
Nautical Twilight
Astronomical Twilight
Moon
Length of Visible Light
Length of Day
Tomorrow will be .
, % of the Moon is Illuminated

Today's Extremes

State Highs State Lows

Community

WunderPhotos

Upload Photos

1,891,043 photos uploaded!

WunderBlog® & News

Nearby

Air Quality

  Air Quality AQ Index Pollutant
Not available.

Snow Depth

Station Depth Elevation

Earthquake Activity

City Distance Mag. Time & Date
Minimum magnitude displayed is 2.5.

Coastal Water Temperatures

Place Temperature

Stations

Nearby Weather Stations

Station Location Temp. Windchill Dew Point Humidity Wind Precip. Elev Updated Type
                   

Watches & Warnings

There are currently no watches in effect.